createdAt,value
2022-11-16T00:01:12.895Z,94200.78
2022-11-16T00:03:40.114Z,94200.06
2022-11-16T00:06:08.087Z,94200.94
2022-11-16T00:08:37.371Z,94200.94
2022-11-16T00:11:18.981Z,94201.38
2022-11-16T00:13:45.914Z,94202.97
2022-11-16T00:16:16.449Z,94200.66
2022-11-16T00:18:44.054Z,94196.78
2022-11-16T00:21:11.160Z,94194.47
2022-11-16T00:23:38.855Z,94191.28
2022-11-16T00:26:12.372Z,94200.66
2022-11-16T00:28:38.919Z,94202.97
2022-11-16T00:31:07.344Z,94207.59
2022-11-16T00:33:34.485Z,94212.63
2022-11-16T00:36:02.285Z,94212.91
2022-11-16T00:38:29.021Z,94208.13
2022-11-16T00:40:55.747Z,94208.50
2022-11-16T00:43:22.796Z,94205.69
2022-11-16T00:45:49.359Z,94198.59
2022-11-16T00:48:15.971Z,94189.59
2022-11-16T00:50:45.171Z,94177.03
2022-11-16T00:53:17.069Z,94183.69
2022-11-16T00:55:45.065Z,94175.03
2022-11-16T00:58:12.867Z,94171.50
2022-11-16T01:00:40.646Z,94172.63
2022-11-16T01:03:07.233Z,94167.97
2022-11-16T01:05:33.955Z,94173.00
2022-11-16T01:08:00.563Z,94169.03
2022-11-16T01:10:28.156Z,94177.94
2022-11-16T01:12:55.192Z,94161.06
2022-11-16T01:15:24.203Z,94167.31
2022-11-16T01:17:52.146Z,94161.06
2022-11-16T01:20:21.013Z,94154.34
2022-11-16T01:22:48.018Z,94151.97
2022-11-16T01:25:15.843Z,94151.16
2022-11-16T01:27:43.293Z,94166.00
2022-11-16T01:30:13.369Z,94174.66
2022-11-16T01:32:39.924Z,94178.19
2022-11-16T01:35:07.609Z,94173.16
2022-11-16T01:37:34.510Z,94184.38
2022-11-16T01:40:01.117Z,94171.22
2022-11-16T01:42:30.611Z,94176.16
2022-11-16T01:45:04.581Z,94172.56
2022-11-16T01:47:31.430Z,94172.91
2022-11-16T01:50:18.952Z,94165.03
2022-11-16T01:52:57.277Z,94172.91
2022-11-16T01:55:25.442Z,94174.94
2022-11-16T01:57:52.163Z,94173.44
2022-11-16T02:00:19.456Z,94185.97
2022-11-16T02:02:46.046Z,94196.22
2022-11-16T02:09:38.403Z,94186.41
2022-11-16T02:12:39.145Z,94179.09
2022-11-16T02:15:21.230Z,94187.75
2022-11-16T02:17:59.857Z,94192.25
2022-11-16T02:20:52.302Z,94196.84
2022-11-16T02:23:43.740Z,94206.47
2022-11-16T02:26:22.324Z,94189.50
2022-11-16T02:29:16.338Z,94174.16
2022-11-16T02:31:51.632Z,94181.56
2022-11-16T02:34:20.239Z,94195.59
2022-11-16T02:36:51.606Z,94187.28
2022-11-16T02:39:23.145Z,94197.34
2022-11-16T02:41:53.098Z,94207.72
2022-11-16T02:44:29.474Z,94210.44
2022-11-16T02:46:59.932Z,94223.00
2022-11-16T02:49:28.894Z,94221.75
2022-11-16T02:51:56.534Z,94214.34
2022-11-16T02:54:24.949Z,94214.00
2022-11-16T02:57:36.149Z,94213.66
2022-11-16T03:00:05.824Z,94220.94
2022-11-16T03:02:36.273Z,94210.78
2022-11-16T03:05:09.634Z,94208.41
2022-11-16T03:07:46.522Z,94216.16
2022-11-16T03:10:35.396Z,94220.75
2022-11-16T03:13:03.698Z,94211.66
2022-11-16T03:15:30.525Z,94214.19
2022-11-16T03:17:59.723Z,94213.56
2022-11-16T03:20:29.623Z,94224.84
2022-11-16T03:23:02.837Z,94210.28
2022-11-16T03:25:36.165Z,94217.13
2022-11-16T03:28:06.146Z,94216.38
2022-11-16T03:30:38.638Z,94221.63
2022-11-16T03:33:43.097Z,94217.22
2022-11-16T03:36:17.976Z,94226.31
2022-11-16T03:38:47.424Z,94233.72
2022-11-16T03:41:14.946Z,94237.38
2022-11-16T03:43:44.766Z,94242.38
2022-11-16T03:46:12.273Z,94237.84
2022-11-16T03:48:40.077Z,94243.06
2022-11-16T03:51:09.634Z,94245.03
2022-11-16T03:53:36.886Z,94243.88
2022-11-16T03:56:04.043Z,94253.56
2022-11-16T03:58:30.960Z,94239.56
2022-11-16T04:00:57.916Z,94246.91
2022-11-16T04:03:24.555Z,94245.06
2022-11-16T04:06:09.918Z,94251.66
2022-11-16T04:08:55.070Z,94272.09
2022-11-16T04:11:40.892Z,94266.66
2022-11-16T04:14:33.297Z,94260.84
2022-11-16T04:17:18.460Z,94255.91
2022-11-16T04:20:03.653Z,94262.63
2022-11-16T04:22:55.896Z,94259.13
2022-11-16T04:25:27.143Z,94249.00
2022-11-16T04:28:13.257Z,94257.31
2022-11-16T04:31:06.515Z,94252.63
2022-11-16T04:33:51.687Z,94264.47
2022-11-16T04:36:36.690Z,94268.22
2022-11-16T04:39:04.313Z,94274.53
2022-11-16T04:41:50.388Z,94265.41
2022-11-16T04:44:17.474Z,94282.34
2022-11-16T04:47:02.492Z,94280.75
2022-11-16T04:49:29.111Z,94294.16
2022-11-16T04:51:56.191Z,94280.06
2022-11-16T04:54:22.742Z,94274.50
2022-11-16T04:56:49.323Z,94280.03
2022-11-16T04:59:15.933Z,94293.81
2022-11-16T05:02:01.098Z,94290.75
2022-11-16T05:04:27.652Z,94290.75
2022-11-16T05:06:54.345Z,94287.78
2022-11-16T05:09:20.989Z,94294.78
2022-11-16T05:11:47.650Z,94296.81
2022-11-16T05:14:14.248Z,94289.75
2022-11-16T05:16:40.870Z,94292.94
2022-11-16T05:19:26.079Z,94293.59
2022-11-16T05:21:52.672Z,94293.81
2022-11-16T05:24:34.428Z,94293.34
2022-11-16T05:27:07.125Z,94287.66
2022-11-16T05:29:34.362Z,94294.69
2022-11-16T05:32:01.857Z,94302.41
2022-11-16T05:34:29.372Z,94292.50
2022-11-16T05:36:56.820Z,94297.22
2022-11-16T05:39:24.062Z,94294.69
2022-11-16T05:41:51.103Z,94299.13
2022-11-16T05:44:17.898Z,94300.75
2022-11-16T05:46:45.185Z,94299.94
2022-11-16T05:49:13.069Z,94297.56
2022-11-16T05:51:41.506Z,94301.06
2022-11-16T05:54:08.213Z,94296.72
2022-11-16T05:56:35.275Z,94304.09
2022-11-16T05:59:02.010Z,94313.84
2022-11-16T06:01:28.861Z,94301.06
2022-11-16T06:03:55.747Z,94308.91
2022-11-16T06:06:22.420Z,94305.06
2022-11-16T06:08:48.961Z,94307.47
2022-11-16T06:11:15.570Z,94304.88
2022-11-16T06:13:42.214Z,94306.94
2022-11-16T06:16:09.441Z,94305.94
2022-11-16T06:18:40.893Z,94304.94
2022-11-16T06:21:08.263Z,94300.06
2022-11-16T06:23:35.470Z,94298.13
2022-11-16T06:26:02.630Z,94291.56
2022-11-16T06:28:29.592Z,94294.06
2022-11-16T06:30:56.578Z,94289.41
2022-11-16T06:33:23.503Z,94293.84
2022-11-16T06:35:50.298Z,94293.84
2022-11-16T06:38:20.670Z,94290.00
2022-11-16T06:40:56.170Z,94280.91
2022-11-16T06:43:23.694Z,94288.41
2022-11-16T06:45:52.048Z,94284.22
2022-11-16T06:48:19.428Z,94294.31
2022-11-16T06:50:48.673Z,94295.06
2022-11-16T06:53:15.814Z,94288.13
2022-11-16T06:55:42.520Z,94286.72
2022-11-16T06:58:09.178Z,94293.78
2022-11-16T07:00:36.219Z,94292.44
2022-11-16T07:03:03.980Z,94299.72
2022-11-16T07:05:31.680Z,94306.31
2022-11-16T07:07:58.784Z,94306.78
2022-11-16T07:10:25.642Z,94312.69
2022-11-16T07:12:52.340Z,94310.44
2022-11-16T07:15:20.117Z,94319.53
2022-11-16T07:17:47.149Z,94318.88
2022-11-16T07:20:13.843Z,94321.38
2022-11-16T07:22:40.510Z,94312.06
2022-11-16T07:25:07.820Z,94324.09
2022-11-16T07:27:34.515Z,94326.97
2022-11-16T07:30:02.187Z,94325.50
2022-11-16T07:32:31.177Z,94321.09
2022-11-16T07:34:59.415Z,94328.84
2022-11-16T07:37:26.363Z,94319.19
2022-11-16T07:39:53.007Z,94332.19
2022-11-16T07:42:19.552Z,94328.31
2022-11-16T07:44:46.132Z,94329.91
2022-11-16T07:47:12.710Z,94329.56
2022-11-16T07:49:39.329Z,94341.44
2022-11-16T07:52:08.896Z,94345.28
2022-11-16T07:54:35.470Z,94341.78
2022-11-16T07:57:02.154Z,94343.69
2022-11-16T07:59:28.798Z,94346.44
2022-11-16T08:01:59.290Z,94342.34
2022-11-16T08:04:26.129Z,94338.81
2022-11-16T08:06:52.876Z,94344.75
2022-11-16T08:09:19.690Z,94340.66
2022-11-16T08:11:47.206Z,94340.44
2022-11-16T08:14:14.128Z,94347.72
2022-11-16T08:16:40.684Z,94351.25
2022-11-16T08:19:07.177Z,94352.03
2022-11-16T08:21:33.742Z,94347.50
2022-11-16T08:24:00.292Z,94344.88
2022-11-16T08:26:27.725Z,94347.06
2022-11-16T08:28:56.489Z,94346.25
2022-11-16T08:31:26.093Z,94344.91
2022-11-16T08:33:52.729Z,94348.44
2022-11-16T08:36:20.238Z,94342.75
2022-11-16T08:38:50.960Z,94349.22
2022-11-16T08:41:18.736Z,94347.88
2022-11-16T08:43:47.315Z,94353.44
2022-11-16T08:46:14.816Z,94348.91
2022-11-16T08:48:41.513Z,94359.13
2022-11-16T08:51:19.597Z,94362.91
2022-11-16T08:53:48.465Z,94354.34
2022-11-16T08:56:17.409Z,94361.31
2022-11-16T08:58:44.397Z,94365.97
2022-11-16T09:01:14.009Z,94356.53
2022-11-16T09:03:41.521Z,94364.94
2022-11-16T09:06:09.627Z,94356.88
2022-11-16T09:08:37.784Z,94354.84
2022-11-16T09:11:09.913Z,94360.31
2022-11-16T09:13:36.786Z,94352.19
2022-11-16T09:16:03.911Z,94344.44
2022-11-16T09:18:31.835Z,94351.16
2022-11-16T09:20:59.124Z,94343.75
2022-11-16T09:23:26.068Z,94352.53
2022-11-16T09:25:54.426Z,94347.19
2022-11-16T09:28:22.109Z,94353.44
2022-11-16T09:30:50.832Z,94355.50
2022-11-16T09:33:18.214Z,94355.94
2022-11-16T09:35:44.980Z,94360.41
2022-11-16T09:38:15.983Z,94356.41
2022-11-16T09:40:47.787Z,94361.75
2022-11-16T09:43:25.609Z,94357.75
2022-11-16T09:46:13.834Z,94365.97
2022-11-16T09:48:41.484Z,94357.44
2022-11-16T09:51:12.693Z,94355.28
2022-11-16T09:53:44.492Z,94369.06
2022-11-16T09:56:22.069Z,94351.19
2022-11-16T09:59:07.717Z,94358.59
2022-11-16T10:01:38.960Z,94368.72
2022-11-16T10:04:13.311Z,94375.78
2022-11-16T10:07:04.522Z,94370.88
2022-11-16T10:09:31.275Z,94371.56
2022-11-16T10:12:09.761Z,94366.88
2022-11-16T10:14:47.813Z,94355.22
2022-11-16T10:17:33.268Z,94355.34
2022-11-16T10:20:30.474Z,94358.75
2022-11-16T10:23:10.138Z,94353.59
2022-11-16T10:25:51.225Z,94344.81
2022-11-16T10:28:27.648Z,94348.69
2022-11-16T10:31:15.021Z,94336.50
2022-11-16T10:33:46.743Z,94347.94
2022-11-16T10:36:15.353Z,94341.59
2022-11-16T10:38:44.329Z,94344.91
2022-11-16T10:41:25.035Z,94339.09
2022-11-16T10:43:51.592Z,94333.53
2022-11-16T10:46:24.314Z,94327.38
2022-11-16T10:49:15.605Z,94326.81
2022-11-16T10:51:43.342Z,94319.72
2022-11-16T10:54:14.385Z,94316.16
2022-11-16T10:56:45.414Z,94317.25
2022-11-16T10:59:21.785Z,94318.50
2022-11-16T11:01:50.300Z,94309.06
2022-11-16T11:04:31.562Z,94312.13
2022-11-16T11:07:00.783Z,94310.75
2022-11-16T11:09:38.849Z,94313.03
2022-11-16T11:12:33.129Z,94308.25
2022-11-16T11:15:26.165Z,94299.13
2022-11-16T11:18:11.716Z,94314.38
2022-11-16T11:20:44.747Z,94309.41
2022-11-16T11:23:17.346Z,94302.25
2022-11-16T11:25:54.442Z,94291.66
2022-11-16T11:28:28.757Z,94296.56
2022-11-16T11:31:04.263Z,94282.00
2022-11-16T11:33:37.631Z,94290.09
2022-11-16T11:36:18.596Z,94302.75
2022-11-16T11:39:04.050Z,94300.25
2022-11-16T11:41:37.443Z,94298.94
2022-11-16T11:44:25.300Z,94296.09
2022-11-16T11:49:52.198Z,94283.41
2022-11-16T11:52:33.945Z,94281.34
2022-11-16T11:55:02.907Z,94286.00
2022-11-16T11:57:33.308Z,94282.13
2022-11-16T12:00:03.178Z,94277.81
2022-11-16T12:02:54.559Z,94283.59
2022-11-16T12:05:57.673Z,94282.06
2022-11-16T12:08:41.188Z,94268.19
2022-11-16T12:11:22.373Z,94280.31
2022-11-16T12:14:13.582Z,94273.69
2022-11-16T12:16:40.261Z,94267.88
2022-11-16T12:19:21.880Z,94264.44
2022-11-16T12:22:06.756Z,94263.34
2022-11-16T12:24:45.152Z,94266.81
2022-11-16T12:27:14.312Z,94255.31
2022-11-16T12:30:09.863Z,94261.88
2022-11-16T12:33:11.204Z,94260.91
2022-11-16T12:35:46.632Z,94242.22
2022-11-16T12:38:33.412Z,94250.88
2022-11-16T12:41:12.361Z,94244.59
2022-11-16T12:43:57.557Z,94239.03
2022-11-16T12:46:35.933Z,94246.41
2022-11-16T12:49:35.325Z,94240.16
2022-11-16T12:52:13.689Z,94243.03
2022-11-16T12:55:29.303Z,94244.63
2022-11-16T12:58:10.863Z,94237.25
2022-11-16T13:00:54.376Z,94237.81
2022-11-16T13:03:28.107Z,94238.06
2022-11-16T13:05:57.793Z,94232.03
2022-11-16T13:08:49.556Z,94225.63
2022-11-16T13:11:35.584Z,94216.13
2022-11-16T13:14:07.765Z,94219.16
2022-11-16T13:16:34.376Z,94222.69
2022-11-16T13:19:05.786Z,94211.47
2022-11-16T13:22:03.583Z,94204.25
2022-11-16T13:24:39.012Z,94202.84
2022-11-16T13:27:41.493Z,94199.13
2022-11-16T13:30:22.141Z,94198.88
2022-11-16T13:33:50.274Z,94197.81
2022-11-16T13:36:32.734Z,94204.09
2022-11-16T13:39:00.521Z,94200.19
2022-11-16T13:41:31.112Z,94205.94
2022-11-16T13:43:58.400Z,94203.47
2022-11-16T13:46:55.439Z,94204.50
2022-11-16T13:49:48.937Z,94191.00
2022-11-16T13:52:26.383Z,94190.81
2022-11-16T13:54:57.258Z,94180.94
2022-11-16T13:57:32.421Z,94192.16
2022-11-16T14:00:01.815Z,94191.78
2022-11-16T14:02:32.752Z,94189.34
2022-11-16T14:05:02.912Z,94168.25
2022-11-16T14:07:33.971Z,94175.13
2022-11-16T14:10:01.243Z,94168.69
2022-11-16T14:12:54.398Z,94161.50
2022-11-16T14:15:25.825Z,94165.94
2022-11-16T14:18:07.406Z,94171.31
2022-11-16T14:20:51.062Z,94171.06
2022-11-16T14:23:23.418Z,94173.19
2022-11-16T14:26:20.402Z,94164.34
2022-11-16T14:29:11.393Z,94155.53
2022-11-16T14:31:59.176Z,94167.25
2022-11-16T14:34:32.002Z,94167.16
2022-11-16T14:37:00.406Z,94162.47
2022-11-16T14:39:40.054Z,94162.84
2022-11-16T14:42:25.938Z,94152.22
2022-11-16T14:45:01.645Z,94142.06
2022-11-16T14:47:32.580Z,94131.84
2022-11-16T14:49:59.158Z,94130.59
2022-11-16T14:52:40.305Z,94131.31
2022-11-16T14:55:09.683Z,94129.38
2022-11-16T14:57:36.507Z,94129.97
2022-11-16T15:00:19.509Z,94132.25
2022-11-16T15:02:57.673Z,94131.03
2022-11-16T15:05:32.799Z,94125.91
2022-11-16T15:08:00.616Z,94121.50
2022-11-16T15:10:29.197Z,94122.19
2022-11-16T15:12:57.425Z,94116.97
2022-11-16T15:15:26.851Z,94111.97
2022-11-16T15:18:11.414Z,94111.50
2022-11-16T15:20:47.945Z,94103.31
2022-11-16T15:23:15.501Z,94121.75
2022-11-16T15:25:55.513Z,94115.84
2022-11-16T15:28:21.983Z,94107.63
2022-11-16T15:31:13.974Z,94091.50
2022-11-16T15:33:45.392Z,94090.34
2022-11-16T15:36:40.839Z,94096.16
2022-11-16T15:39:14.274Z,94092.53
2022-11-16T15:41:41.853Z,94094.03
2022-11-16T15:44:15.647Z,94089.03
2022-11-16T15:46:45.977Z,94082.41
2022-11-16T15:49:35.577Z,94073.06
2022-11-16T15:52:02.946Z,94074.66
2022-11-16T15:54:53.798Z,94078.19
2022-11-16T15:57:22.207Z,94073.16
2022-11-16T15:59:54.801Z,94077.13
2022-11-16T16:02:24.214Z,94075.19
2022-11-16T16:04:50.919Z,94071.66
2022-11-16T16:07:47.688Z,94061.88
2022-11-16T16:10:24.637Z,94063.47
2022-11-16T16:12:57.254Z,94053.66
2022-11-16T16:15:36.780Z,94059.13
2022-11-16T16:18:12.375Z,94052.09
2022-11-16T16:20:38.975Z,94052.78
2022-11-16T16:23:12.862Z,94052.78
2022-11-16T16:25:39.435Z,94040.63
2022-11-16T16:28:06.067Z,94034.72
2022-11-16T16:30:34.735Z,94034.97
2022-11-16T16:33:02.264Z,94027.38
2022-11-16T16:35:29.087Z,94027.38
2022-11-16T16:38:00.986Z,94020.06
2022-11-16T16:40:28.540Z,94016.72
2022-11-16T16:42:56.594Z,94024.22
2022-11-16T16:45:41.398Z,94017.25
2022-11-16T16:48:12.553Z,94019.28
2022-11-16T16:50:39.726Z,94027.91
2022-11-16T16:53:06.867Z,94011.53
2022-11-16T16:55:37.434Z,94011.53
2022-11-16T16:58:06.094Z,94007.66
2022-11-16T17:00:33.151Z,94007.66
2022-11-16T17:02:59.727Z,94005.69
2022-11-16T17:05:26.460Z,93994.41
2022-11-16T17:07:56.555Z,93994.06
2022-11-16T17:10:23.204Z,93979.59
2022-11-16T17:12:53.450Z,93982.34
2022-11-16T17:15:20.117Z,93986.66
2022-11-16T17:17:47.167Z,93988.94
2022-11-16T17:20:14.259Z,93984.63
2022-11-16T17:22:41.943Z,93973.34
2022-11-16T17:25:09.554Z,93970.25
2022-11-16T17:27:36.108Z,93963.19
2022-11-16T17:30:03.516Z,93971.41
2022-11-16T17:32:30.250Z,93971.03
2022-11-16T17:34:56.757Z,93971.84
2022-11-16T17:37:23.461Z,93967.53
2022-11-16T17:39:49.974Z,93971.75
2022-11-16T17:42:16.543Z,93967.09
2022-11-16T17:44:43.170Z,93968.66
2022-11-16T17:47:09.753Z,93974.13
2022-11-16T17:49:36.513Z,93964.69
2022-11-16T17:52:04.571Z,93976.44
2022-11-16T17:54:31.150Z,93974.50
2022-11-16T17:56:57.734Z,93964.34
2022-11-16T17:59:29.232Z,93956.16
2022-11-16T18:01:58.003Z,93952.25
2022-11-16T18:04:24.879Z,93956.16
2022-11-16T18:06:51.495Z,93951.81
2022-11-16T18:09:19.583Z,93950.25
2022-11-16T18:11:47.259Z,93948.31
2022-11-16T18:14:13.906Z,93950.94
2022-11-16T18:16:44.347Z,93949.81
2022-11-16T18:19:16.249Z,93958.00
2022-11-16T18:21:43.132Z,93964.25
2022-11-16T18:24:10.217Z,93964.25
2022-11-16T18:26:36.936Z,93965.41
2022-11-16T18:29:04.194Z,93973.25
2022-11-16T18:31:32.991Z,93971.22
2022-11-16T18:34:01.192Z,93983.41
2022-11-16T18:36:27.837Z,93981.00
2022-11-16T18:38:54.525Z,93969.28
2022-11-16T18:41:24.004Z,93970.09
2022-11-16T18:43:57.764Z,93969.28
2022-11-16T18:46:26.841Z,93970.09
2022-11-16T18:48:53.710Z,93970.09
2022-11-16T18:51:21.633Z,93957.56
2022-11-16T18:53:48.800Z,93957.13
2022-11-16T18:56:16.131Z,93951.66
2022-11-16T18:58:50.460Z,93950.06
2022-11-16T19:01:19.610Z,93952.81
2022-11-16T19:03:46.596Z,93947.34
2022-11-16T19:06:14.951Z,93948.56
2022-11-16T19:08:43.649Z,93930.59
2022-11-16T19:11:14.902Z,93935.69
2022-11-16T19:13:43.755Z,93935.69
2022-11-16T19:16:12.009Z,93923.63
2022-11-16T19:18:38.965Z,93923.19
2022-11-16T19:21:10.538Z,93910.66
2022-11-16T19:23:42.863Z,93907.94
2022-11-16T19:26:10.408Z,93898.94
2022-11-16T19:28:41.370Z,93901.22
2022-11-16T19:31:17.907Z,93896.56
2022-11-16T19:33:45.561Z,93898.16
2022-11-16T19:36:13.710Z,93899.28
2022-11-16T19:38:40.645Z,93899.28
2022-11-16T19:41:08.086Z,93886.41
2022-11-16T19:43:35.620Z,93891.09
2022-11-16T19:46:07.914Z,93875.84
2022-11-16T19:48:35.018Z,93879.28
2022-11-16T19:51:06.521Z,93876.19
2022-11-16T19:53:33.788Z,93875.41
2022-11-16T19:56:01.064Z,93860.16
2022-11-16T19:58:28.114Z,93856.97
2022-11-16T20:01:05.306Z,93854.25
2022-11-16T20:03:33.104Z,93849.59
2022-11-16T20:06:20.993Z,93849.16
2022-11-16T20:08:52.896Z,93848.78
2022-11-16T20:11:24.757Z,93839.00
2022-11-16T20:13:52.874Z,93834.69
2022-11-16T20:16:22.769Z,93830.81
2022-11-16T20:18:50.325Z,93829.22
2022-11-16T20:21:28.143Z,93833.19
2022-11-16T20:23:59.104Z,93819.88
2022-11-16T20:26:30.805Z,93804.63
2022-11-16T20:28:58.065Z,93803.47
2022-11-16T20:31:27.455Z,93799.97
2022-11-16T20:33:55.449Z,93800.75
2022-11-16T20:36:24.049Z,93802.34
2022-11-16T20:38:51.574Z,93793.69
2022-11-16T20:41:21.505Z,93781.53
2022-11-16T20:43:51.305Z,93778.03
2022-11-16T20:46:18.882Z,93774.13
2022-11-16T20:48:45.794Z,93777.22
2022-11-16T20:51:14.897Z,93780.03
2022-11-16T20:53:41.450Z,93760.13
2022-11-16T20:56:10.573Z,93754.22
2022-11-16T20:58:37.724Z,93753.84
2022-11-16T21:01:07.000Z,93753.06
2022-11-16T21:03:34.645Z,93743.72
2022-11-16T21:06:01.479Z,93740.19
2022-11-16T21:08:29.779Z,93741.69
2022-11-16T21:10:56.742Z,93737.81
2022-11-16T21:13:42.428Z,93741.34
2022-11-16T21:16:11.462Z,93728.03
2022-11-16T21:18:39.436Z,93715.88
2022-11-16T21:21:08.555Z,93708.06
2022-11-16T21:23:36.476Z,93705.75
2022-11-16T21:26:05.590Z,93679.94
2022-11-16T21:28:33.210Z,93676.41
2022-11-16T21:31:02.001Z,93684.25
2022-11-16T21:33:29.073Z,93672.09
2022-11-16T21:35:56.022Z,93658.50
2022-11-16T21:38:25.386Z,93649.44
2022-11-16T21:40:51.907Z,93645.56
2022-11-16T21:43:19.795Z,93640.47
2022-11-16T21:45:48.343Z,93639.69
2022-11-16T21:48:15.270Z,93625.59
2022-11-16T21:50:41.883Z,93618.19
2022-11-16T21:53:09.217Z,93616.59
2022-11-16T21:55:35.830Z,93607.97
2022-11-16T21:58:05.975Z,93604.88
2022-11-16T22:00:32.616Z,93603.72
2022-11-16T22:02:59.204Z,93600.28
2022-11-16T22:05:45.965Z,93592.09
2022-11-16T22:08:12.573Z,93585.47
2022-11-16T22:10:39.545Z,93591.72
2022-11-16T22:13:06.177Z,93581.59
2022-11-16T22:15:32.714Z,93585.91
2022-11-16T22:17:59.271Z,93563.19
2022-11-16T22:20:25.868Z,93550.25
2022-11-16T22:22:52.627Z,93546.38
2022-11-16T22:25:19.452Z,93544.78
2022-11-16T22:28:18.676Z,93539.38
2022-11-16T22:30:35.849Z,93525.72
2022-11-16T22:33:02.444Z,93519.47
2022-11-16T22:35:29.009Z,93512.06
2022-11-16T22:37:56.125Z,93502.72
2022-11-16T22:40:22.658Z,93501.19
2022-11-16T22:42:49.247Z,93492.56
2022-11-16T22:45:16.185Z,93477.75
2022-11-16T22:47:42.858Z,93471.50
2022-11-16T22:50:09.542Z,93463.75
2022-11-16T22:52:36.289Z,93456.28
2022-11-16T22:55:02.838Z,93456.28
2022-11-16T22:57:29.507Z,93455.13
2022-11-16T22:59:56.070Z,93448.88
2022-11-16T23:02:22.588Z,93443.81
2022-11-16T23:04:49.118Z,93434.41
2022-11-16T23:07:15.741Z,93428.09
2022-11-16T23:09:42.476Z,93433.94
2022-11-16T23:12:27.923Z,93429.69
2022-11-16T23:15:13.237Z,93421.84
2022-11-16T23:17:39.763Z,93410.50
2022-11-16T23:20:25.482Z,93394.13
2022-11-16T23:23:10.620Z,93372.63
2022-11-16T23:25:55.670Z,93391.75
2022-11-16T23:28:22.357Z,93383.91
2022-11-16T23:30:49.053Z,93370.69
2022-11-16T23:33:15.647Z,93373.38
2022-11-16T23:35:42.246Z,93382.75
2022-11-16T23:38:08.884Z,93378.47
2022-11-16T23:40:37.725Z,93376.88
2022-11-16T23:43:24.231Z,93363.59
2022-11-16T23:45:51.269Z,93348.69
2022-11-16T23:48:18.945Z,93350.31
2022-11-16T23:50:46.496Z,93333.47
2022-11-16T23:53:13.333Z,93341.66
2022-11-16T23:55:40.422Z,93345.16
2022-11-16T23:58:11.340Z,93338.22
